createdAt,value
2022-10-01T00:04:37.267Z,11.33
2022-10-01T00:10:15.294Z,10.57
2022-10-01T00:15:49.986Z,9.93
2022-10-01T00:21:28.043Z,10.57
2022-10-01T00:24:16.426Z,10.47
2022-10-01T00:29:49.205Z,11.07
2022-10-01T00:38:07.252Z,11.30
2022-10-01T00:40:55.533Z,12.37
2022-10-01T00:52:11.523Z,13.13
2022-10-01T00:57:46.260Z,13.17
2022-10-01T01:03:21.394Z,14.50
2022-10-01T01:09:01.692Z,16.77
2022-10-01T01:14:40.648Z,18.70
2022-10-01T01:23:44.719Z,19.10
2022-10-01T01:29:28.288Z,19.90
2022-10-01T01:32:18.886Z,19.30
2022-10-01T01:35:09.867Z,19.33
2022-10-01T01:40:41.500Z,20.03
2022-10-01T01:43:32.958Z,20.27
2022-10-01T01:46:21.973Z,20.20
2022-10-01T01:52:05.024Z,19.30
2022-10-01T01:54:53.779Z,19.80
2022-10-01T01:57:43.849Z,19.37
2022-10-01T02:00:32.011Z,19.73
2022-10-01T02:03:22.027Z,19.80
2022-10-01T02:09:08.868Z,18.30
2022-10-01T02:12:06.297Z,20.20
2022-10-01T02:14:57.960Z,19.90
2022-10-01T02:20:36.057Z,19.87
2022-10-01T02:26:14.918Z,19.67
2022-10-01T02:31:52.244Z,18.87
2022-10-01T02:37:29.511Z,17.70
2022-10-01T02:43:07.979Z,18.20
2022-10-01T02:45:58.861Z,17.80
2022-10-01T02:51:32.802Z,18.07
2022-10-01T02:57:27.829Z,15.73
2022-10-01T03:03:07.194Z,16.07
2022-10-01T03:08:41.090Z,15.30
2022-10-01T03:14:18.960Z,13.43
2022-10-01T03:17:07.700Z,13.40
2022-10-01T03:22:46.709Z,12.67
2022-10-01T03:25:36.249Z,11.83
2022-10-01T03:31:08.787Z,12.57
2022-10-01T03:36:38.825Z,11.73
2022-10-01T03:42:17.091Z,10.67
2022-10-01T03:47:52.769Z,10.93
2022-10-01T03:50:43.224Z,9.97
2022-10-01T03:53:31.968Z,9.70
2022-10-01T03:56:20.143Z,10.23
2022-10-01T04:01:59.191Z,10.30
2022-10-01T04:04:48.750Z,10.50
2022-10-01T04:10:24.411Z,10.53
2022-10-01T04:15:58.424Z,10.73
2022-10-01T04:18:47.958Z,11.03
2022-10-01T04:27:02.332Z,10.37
2022-10-01T04:32:38.727Z,8.93
2022-10-01T04:35:27.123Z,9.00
2022-10-01T04:38:16.331Z,9.20
2022-10-01T04:43:53.082Z,8.03
2022-10-01T04:46:41.500Z,8.47
2022-10-01T04:52:18.638Z,7.73
2022-10-01T04:57:50.383Z,8.20
2022-10-01T05:00:38.998Z,8.20
2022-10-01T05:06:12.298Z,7.13
2022-10-01T05:09:00.064Z,7.27
2022-10-01T05:11:49.630Z,6.73
2022-10-01T05:17:26.869Z,6.47
2022-10-01T05:25:46.904Z,5.60
2022-10-01T05:28:35.565Z,5.33
2022-10-01T05:31:24.656Z,6.20
2022-10-01T05:34:14.019Z,6.70
2022-10-01T05:37:02.749Z,5.93
2022-10-01T05:42:31.316Z,5.83
2022-10-01T05:50:44.349Z,4.90
2022-10-01T05:53:33.857Z,5.83
2022-10-01T05:56:22.093Z,5.10
2022-10-01T05:59:11.921Z,5.53
2022-10-01T06:02:00.656Z,5.10
2022-10-01T06:04:50.229Z,4.60
2022-10-01T06:10:19.114Z,4.27
2022-10-01T06:13:08.386Z,5.00
2022-10-01T06:18:42.190Z,4.60
2022-10-01T06:24:17.790Z,5.03
2022-10-01T06:27:06.198Z,5.07
2022-10-01T06:32:43.210Z,4.27
2022-10-01T06:35:31.753Z,4.60
2022-10-01T06:41:02.028Z,4.07
2022-10-01T06:44:01.759Z,3.80
2022-10-01T06:52:37.110Z,2.90
2022-10-01T06:55:28.917Z,3.10
2022-10-01T07:01:06.024Z,2.83
2022-10-01T07:03:55.675Z,2.80
2022-10-01T07:06:45.548Z,2.60
2022-10-01T07:09:35.465Z,2.17
2022-10-01T07:12:25.110Z,2.37
2022-10-01T07:18:06.683Z,2.20
2022-10-01T07:23:43.844Z,2.33
2022-10-01T07:26:33.122Z,2.13
2022-10-01T07:32:10.509Z,2.20
2022-10-01T07:34:59.134Z,2.13
2022-10-01T07:40:27.875Z,2.50
2022-10-01T07:46:11.550Z,2.80
2022-10-01T07:51:48.541Z,2.37
2022-10-01T07:54:36.410Z,2.50
2022-10-01T08:00:12.181Z,2.97
2022-10-01T08:05:46.369Z,2.60
2022-10-01T08:08:35.530Z,2.33
2022-10-01T08:14:14.484Z,2.20
2022-10-01T08:17:02.744Z,2.30
2022-10-01T08:22:41.857Z,2.47
2022-10-01T08:28:17.256Z,2.27
2022-10-01T08:31:08.952Z,2.60
2022-10-01T08:39:29.553Z,2.27
2022-10-01T08:45:04.271Z,2.33
2022-10-01T08:50:47.935Z,2.30
2022-10-01T08:53:39.076Z,2.40
2022-10-01T08:59:27.220Z,2.37
2022-10-01T09:02:20.061Z,2.13
2022-10-01T09:05:16.207Z,2.30
2022-10-01T09:11:01.268Z,2.30
2022-10-01T09:16:34.148Z,2.07
2022-10-01T09:19:46.125Z,2.27
2022-10-01T09:25:25.982Z,2.60
2022-10-01T09:31:00.116Z,2.37
2022-10-01T09:33:51.862Z,1.80
2022-10-01T09:36:47.470Z,1.93
2022-10-01T09:42:26.674Z,2.13
2022-10-01T09:54:02.224Z,2.10
2022-10-01T09:59:37.430Z,1.90
2022-10-01T10:05:19.260Z,2.10
2022-10-01T10:11:01.316Z,1.70
2022-10-01T10:16:38.605Z,1.87
2022-10-01T10:19:29.137Z,1.90
2022-10-01T10:25:21.291Z,1.70
2022-10-01T10:31:11.143Z,2.10
2022-10-01T10:36:51.743Z,2.00
2022-10-01T10:42:24.176Z,1.93
2022-10-01T10:48:04.651Z,1.90
2022-10-01T10:53:44.597Z,1.93
2022-10-01T10:59:21.669Z,1.90
2022-10-01T11:05:07.092Z,1.73
2022-10-01T11:07:58.269Z,1.87
2022-10-01T11:14:04.847Z,1.70
2022-10-01T11:19:56.374Z,1.70
2022-10-01T11:28:40.156Z,1.87
2022-10-01T11:34:36.780Z,2.10
2022-10-01T11:40:19.914Z,1.70
2022-10-01T11:46:00.737Z,1.83
2022-10-01T11:48:51.221Z,1.73
2022-10-01T11:54:26.145Z,1.70
2022-10-01T12:00:03.422Z,1.77
2022-10-01T12:05:34.894Z,1.87
2022-10-01T12:08:25.720Z,2.07
2022-10-01T12:14:05.218Z,2.20
2022-10-01T12:19:46.904Z,2.13
2022-10-01T12:25:28.863Z,2.17
2022-10-01T12:31:06.133Z,1.90
2022-10-01T12:37:05.770Z,1.93
2022-10-01T12:43:08.007Z,2.10
2022-10-01T12:48:52.741Z,2.13
2022-10-01T12:57:35.718Z,1.90
2022-10-01T13:00:25.119Z,1.97
2022-10-01T13:06:09.586Z,1.80
2022-10-01T13:12:02.998Z,1.80
2022-10-01T13:17:43.555Z,2.00
2022-10-01T13:20:36.963Z,2.03
2022-10-01T13:23:30.817Z,2.00
2022-10-01T13:29:16.071Z,1.97
2022-10-01T13:34:53.055Z,1.73
2022-10-01T13:37:42.902Z,1.67
2022-10-01T13:43:21.732Z,2.07
2022-10-01T13:46:11.351Z,2.30
2022-10-01T13:51:47.715Z,2.13
2022-10-01T14:03:08.287Z,2.10
2022-10-01T14:08:40.545Z,2.20
2022-10-01T14:17:03.228Z,1.60
2022-10-01T14:22:47.090Z,1.50
2022-10-01T14:28:32.871Z,0.80
2022-10-01T14:34:22.930Z,1.00
2022-10-01T14:40:16.619Z,1.20
2022-10-01T14:43:08.423Z,0.90
2022-10-01T14:48:48.286Z,0.80
2022-10-01T14:51:37.573Z,1.30
2022-10-01T14:54:26.519Z,1.20
2022-10-01T15:00:08.279Z,0.93
2022-10-01T15:03:04.207Z,1.60
2022-10-01T15:11:29.750Z,1.00
2022-10-01T15:17:06.518Z,0.90
2022-10-01T15:22:58.984Z,0.90
2022-10-01T15:28:32.437Z,0.97
2022-10-01T15:34:12.119Z,0.93
2022-10-01T15:39:42.606Z,1.00
2022-10-01T15:45:27.847Z,0.90
2022-10-01T15:51:21.528Z,1.00
2022-10-01T15:54:14.075Z,0.87
2022-10-01T15:59:50.543Z,0.70
2022-10-01T16:05:29.598Z,0.80
2022-10-01T16:08:21.704Z,0.63
2022-10-01T16:14:41.522Z,0.70
2022-10-01T16:20:41.535Z,0.73
2022-10-01T16:23:44.022Z,0.90
2022-10-01T16:29:26.861Z,0.70
2022-10-01T16:35:16.636Z,0.70
2022-10-01T16:38:08.138Z,0.90
2022-10-01T16:43:41.082Z,0.80
2022-10-01T16:46:29.105Z,0.70
2022-10-01T16:49:18.447Z,0.80
2022-10-01T16:54:48.309Z,0.80
2022-10-01T17:00:19.130Z,1.00
2022-10-01T17:03:10.392Z,0.73
2022-10-01T17:08:41.131Z,1.00
2022-10-01T17:17:07.135Z,1.00
2022-10-01T17:22:45.091Z,1.60
2022-10-01T17:25:38.023Z,1.07
2022-10-01T17:28:26.587Z,1.23
2022-10-01T17:34:03.131Z,0.77
2022-10-01T17:39:44.241Z,0.50
2022-10-01T17:42:34.360Z,0.50
2022-10-01T17:48:18.910Z,0.50
2022-10-01T17:51:12.895Z,0.60
2022-10-01T17:54:03.256Z,0.40
2022-10-01T17:59:39.884Z,0.63
2022-10-01T18:02:47.027Z,0.70
2022-10-01T18:05:33.042Z,0.60
2022-10-01T18:11:12.002Z,0.60
2022-10-01T18:17:13.527Z,0.60
2022-10-01T18:20:05.034Z,0.40
2022-10-01T18:25:53.956Z,0.50
2022-10-01T18:34:36.477Z,0.50
2022-10-01T18:37:43.086Z,0.40
2022-10-01T18:46:30.648Z,0.80
2022-10-01T18:49:46.532Z,0.50
2022-10-01T18:55:57.414Z,1.00
2022-10-01T18:59:02.539Z,0.90
2022-10-01T19:02:21.176Z,0.90
2022-10-01T19:08:10.321Z,3.60
2022-10-01T19:14:02.635Z,1.73
2022-10-01T19:20:53.784Z,0.70
2022-10-01T19:27:03.472Z,0.80
2022-10-01T19:33:03.693Z,0.70
2022-10-01T19:38:58.062Z,0.60
2022-10-01T19:44:35.245Z,0.70
2022-10-01T19:50:34.628Z,0.70
2022-10-01T19:53:29.247Z,0.60
2022-10-01T20:01:50.433Z,0.80
2022-10-01T20:07:23.577Z,0.50
2022-10-01T20:10:20.217Z,0.60
2022-10-01T20:16:23.458Z,0.60
2022-10-01T20:21:59.300Z,0.60
2022-10-01T20:27:45.722Z,0.53
2022-10-01T20:33:29.339Z,0.60
2022-10-01T20:39:08.603Z,0.70
2022-10-01T20:44:46.185Z,0.80
2022-10-01T20:50:25.390Z,0.83
2022-10-01T20:56:31.282Z,0.50
2022-10-01T21:05:31.880Z,0.90
2022-10-01T21:08:42.108Z,0.80
2022-10-01T21:11:33.218Z,0.50
2022-10-01T21:17:22.049Z,0.73
2022-10-01T21:26:31.721Z,0.87
2022-10-01T21:29:34.661Z,0.77
2022-10-01T21:35:16.919Z,0.60
2022-10-01T21:41:27.212Z,0.70
2022-10-01T21:47:58.645Z,0.73
2022-10-01T21:50:53.072Z,0.80
2022-10-01T21:54:06.058Z,0.90
2022-10-01T22:00:05.036Z,0.90
2022-10-01T22:08:48.460Z,0.70
2022-10-01T22:14:30.168Z,0.77
2022-10-01T22:20:12.768Z,0.70
2022-10-01T22:28:38.875Z,0.63
2022-10-01T22:34:18.422Z,0.60
2022-10-01T22:39:59.048Z,0.60
2022-10-01T22:42:50.876Z,0.90
2022-10-01T22:51:51.530Z,1.10
2022-10-01T22:57:46.215Z,0.87
2022-10-01T23:08:54.054Z,1.00
2022-10-01T23:14:40.465Z,1.13
2022-10-01T23:20:19.306Z,0.80
2022-10-01T23:23:31.288Z,1.10
2022-10-01T23:29:34.374Z,1.60
2022-10-01T23:35:20.595Z,1.10
2022-10-01T23:43:46.695Z,1.20
2022-10-01T23:52:17.994Z,1.23
2022-10-01T23:55:30.034Z,0.87
2022-10-01T23:58:19.202Z,0.90
